sensor_id;sensor_type;location;lat;lon;timestamp;P1;durP1;ratioP1;P2;durP2;ratioP2
1991;SDS011;997;48.448;8.924;2023-02-11T04:02:35;25.03;;;19.80;;
1991;SDS011;997;48.448;8.924;2023-02-11T04:05:02;28.47;;;20.17;;
1991;SDS011;997;48.448;8.924;2023-02-11T04:07:30;24.50;;;19.10;;
1991;SDS011;997;48.448;8.924;2023-02-11T04:09:56;25.87;;;20.30;;
1991;SDS011;997;48.448;8.924;2023-02-11T04:12:22;26.00;;;21.30;;
1991;SDS011;997;48.448;8.924;2023-02-11T04:14:49;29.00;;;22.60;;
1991;SDS011;997;48.448;8.924;2023-02-11T04:17:31;24.00;;;18.37;;
1991;SDS011;997;48.448;8.924;2023-02-11T04:19:56;26.13;;;21.93;;
1991;SDS011;997;48.448;8.924;2023-02-11T04:22:22;28.30;;;23.07;;
1991;SDS011;997;48.448;8.924;2023-02-11T04:24:48;26.30;;;20.80;;
1991;SDS011;997;48.448;8.924;2023-02-11T04:27:13;26.17;;;23.20;;
1991;SDS011;997;48.448;8.924;2023-02-11T04:29:39;23.13;;;17.90;;
1991;SDS011;997;48.448;8.924;2023-02-11T04:32:05;30.23;;;22.50;;
1991;SDS011;997;48.448;8.924;2023-02-11T04:34:30;28.27;;;21.20;;
1991;SDS011;997;48.448;8.924;2023-02-11T04:36:56;22.87;;;18.70;;
1991;SDS011;997;48.448;8.924;2023-02-11T04:39:22;26.30;;;22.03;;
1991;SDS011;997;48.448;8.924;2023-02-11T04:41:47;21.97;;;18.90;;
1991;SDS011;997;48.448;8.924;2023-02-11T04:44:13;25.47;;;20.20;;
1991;SDS011;997;48.448;8.924;2023-02-11T04:46:39;26.43;;;21.00;;
1991;SDS011;997;48.448;8.924;2023-02-11T04:49:05;34.50;;;23.80;;
1991;SDS011;997;48.448;8.924;2023-02-11T04:51:30;24.87;;;20.90;;
1991;SDS011;997;48.448;8.924;2023-02-11T04:53:56;28.27;;;21.70;;
1991;SDS011;997;48.448;8.924;2023-02-11T04:56:22;24.60;;;20.70;;
1991;SDS011;997;48.448;8.924;2023-02-11T04:58:47;28.23;;;22.50;;
1991;SDS011;997;48.448;8.924;2023-02-11T05:01:14;27.50;;;20.77;;
1991;SDS011;997;48.448;8.924;2023-02-11T05:03:40;21.03;;;18.80;;
1991;SDS011;997;48.448;8.924;2023-02-11T05:06:07;27.93;;;19.63;;
1991;SDS011;997;48.448;8.924;2023-02-11T05:08:34;22.30;;;20.03;;
1991;SDS011;997;48.448;8.924;2023-02-11T05:10:59;23.73;;;19.33;;
1991;SDS011;997;48.448;8.924;2023-02-11T05:13:26;24.67;;;19.90;;
1991;SDS011;997;48.448;8.924;2023-02-11T05:15:52;25.57;;;20.37;;
1991;SDS011;997;48.448;8.924;2023-02-11T05:18:18;25.53;;;18.77;;
1991;SDS011;997;48.448;8.924;2023-02-11T05:20:44;27.43;;;20.50;;
1991;SDS011;997;48.448;8.924;2023-02-11T05:23:10;23.63;;;20.17;;
1991;SDS011;997;48.448;8.924;2023-02-11T05:25:36;25.13;;;20.77;;
1991;SDS011;997;48.448;8.924;2023-02-11T05:28:03;25.30;;;20.20;;
1991;SDS011;997;48.448;8.924;2023-02-11T05:30:29;25.53;;;20.43;;
1991;SDS011;997;48.448;8.924;2023-02-11T05:32:55;25.33;;;19.90;;
1991;SDS011;997;48.448;8.924;2023-02-11T05:35:20;27.87;;;19.40;;
1991;SDS011;997;48.448;8.924;2023-02-11T05:37:46;23.57;;;20.67;;
1991;SDS011;997;48.448;8.924;2023-02-11T05:40:12;33.87;;;21.77;;
1991;SDS011;997;48.448;8.924;2023-02-11T05:42:38;29.50;;;22.17;;
1991;SDS011;997;48.448;8.924;2023-02-11T05:45:03;24.10;;;19.40;;
1991;SDS011;997;48.448;8.924;2023-02-11T05:47:29;25.03;;;20.30;;
1991;SDS011;997;48.448;8.924;2023-02-11T05:49:55;24.53;;;21.50;;
1991;SDS011;997;48.448;8.924;2023-02-11T05:52:21;23.70;;;19.40;;
1991;SDS011;997;48.448;8.924;2023-02-11T05:54:47;29.97;;;23.00;;
1991;SDS011;997;48.448;8.924;2023-02-11T05:57:13;25.90;;;21.27;;
1991;SDS011;997;48.448;8.924;2023-02-11T05:59:39;28.03;;;20.33;;
1991;SDS011;997;48.448;8.924;2023-02-11T06:02:05;25.77;;;21.87;;
1991;SDS011;997;48.448;8.924;2023-02-11T06:04:34;27.27;;;21.30;;
1991;SDS011;997;48.448;8.924;2023-02-11T06:07:00;26.97;;;22.13;;
1991;SDS011;997;48.448;8.924;2023-02-11T06:09:26;26.90;;;21.97;;
1991;SDS011;997;48.448;8.924;2023-02-11T06:11:52;26.83;;;19.93;;
1991;SDS011;997;48.448;8.924;2023-02-11T06:14:17;25.30;;;21.20;;
1991;SDS011;997;48.448;8.924;2023-02-11T06:16:43;23.50;;;18.80;;
1991;SDS011;997;48.448;8.924;2023-02-11T06:19:09;23.93;;;18.83;;
1991;SDS011;997;48.448;8.924;2023-02-11T06:21:35;25.07;;;20.27;;
1991;SDS011;997;48.448;8.924;2023-02-11T06:24:01;27.23;;;21.07;;
1991;SDS011;997;48.448;8.924;2023-02-11T06:26:27;35.47;;;25.23;;
1991;SDS011;997;48.448;8.924;2023-02-11T06:28:52;34.27;;;26.20;;
1991;SDS011;997;48.448;8.924;2023-02-11T06:31:18;30.23;;;22.20;;
1991;SDS011;997;48.448;8.924;2023-02-11T06:33:44;26.13;;;19.17;;
1991;SDS011;997;48.448;8.924;2023-02-11T06:36:11;31.03;;;21.23;;
1991;SDS011;997;48.448;8.924;2023-02-11T06:38:39;28.90;;;20.53;;
1991;SDS011;997;48.448;8.924;2023-02-11T06:41:05;27.53;;;21.00;;
1991;SDS011;997;48.448;8.924;2023-02-11T06:43:33;30.23;;;21.13;;
1991;SDS011;997;48.448;8.924;2023-02-11T06:45:58;25.47;;;21.10;;
1991;SDS011;997;48.448;8.924;2023-02-11T06:48:24;27.17;;;22.00;;
1991;SDS011;997;48.448;8.924;2023-02-11T06:50:49;26.10;;;20.70;;
1991;SDS011;997;48.448;8.924;2023-02-11T06:53:15;26.90;;;22.20;;
1991;SDS011;997;48.448;8.924;2023-02-11T06:55:41;29.93;;;22.10;;
1991;SDS011;997;48.448;8.924;2023-02-11T06:58:06;22.17;;;18.80;;
1991;SDS011;997;48.448;8.924;2023-02-11T07:00:32;26.00;;;20.73;;
1991;SDS011;997;48.448;8.924;2023-02-11T07:02:58;24.00;;;20.03;;
1991;SDS011;997;48.448;8.924;2023-02-11T07:05:23;25.63;;;19.40;;
1991;SDS011;997;48.448;8.924;2023-02-11T07:07:49;22.93;;;20.30;;
1991;SDS011;997;48.448;8.924;2023-02-11T07:10:14;30.07;;;21.07;;
1991;SDS011;997;48.448;8.924;2023-02-11T07:12:40;24.93;;;20.40;;
1991;SDS011;997;48.448;8.924;2023-02-11T07:15:06;26.50;;;20.03;;
1991;SDS011;997;48.448;8.924;2023-02-11T07:17:33;24.67;;;21.37;;
1991;SDS011;997;48.448;8.924;2023-02-11T07:19:59;28.77;;;21.87;;
1991;SDS011;997;48.448;8.924;2023-02-11T07:22:25;24.27;;;21.67;;
1991;SDS011;997;48.448;8.924;2023-02-11T07:24:51;22.00;;;19.70;;
1991;SDS011;997;48.448;8.924;2023-02-11T07:27:17;23.07;;;19.83;;
1991;SDS011;997;48.448;8.924;2023-02-11T07:29:43;26.77;;;21.87;;
1991;SDS011;997;48.448;8.924;2023-02-11T07:32:10;24.17;;;20.40;;
1991;SDS011;997;48.448;8.924;2023-02-11T07:34:37;31.23;;;21.30;;
1991;SDS011;997;48.448;8.924;2023-02-11T07:37:03;26.00;;;21.60;;
1991;SDS011;997;48.448;8.924;2023-02-11T07:39:29;23.57;;;21.20;;
1991;SDS011;997;48.448;8.924;2023-02-11T07:41:54;27.07;;;20.87;;
1991;SDS011;997;48.448;8.924;2023-02-11T07:44:20;26.50;;;20.93;;
1991;SDS011;997;48.448;8.924;2023-02-11T07:46:46;27.40;;;23.10;;
1991;SDS011;997;48.448;8.924;2023-02-11T07:49:13;28.90;;;22.10;;
1991;SDS011;997;48.448;8.924;2023-02-11T07:51:39;26.43;;;22.70;;
1991;SDS011;997;48.448;8.924;2023-02-11T07:54:04;27.67;;;21.13;;
1991;SDS011;997;48.448;8.924;2023-02-11T07:56:31;27.53;;;22.50;;
1991;SDS011;997;48.448;8.924;2023-02-11T07:59:00;38.77;;;27.20;;
1991;SDS011;997;48.448;8.924;2023-02-11T08:01:27;49.77;;;35.50;;
1991;SDS011;997;48.448;8.924;2023-02-11T08:03:54;40.00;;;27.53;;
1991;SDS011;997;48.448;8.924;2023-02-11T08:06:21;28.27;;;23.93;;
1991;SDS011;997;48.448;8.924;2023-02-11T08:08:49;29.93;;;21.80;;
1991;SDS011;997;48.448;8.924;2023-02-11T08:11:19;24.27;;;21.77;;
1991;SDS011;997;48.448;8.924;2023-02-11T08:13:46;30.70;;;27.40;;
1991;SDS011;997;48.448;8.924;2023-02-11T08:16:26;27.13;;;22.50;;
1991;SDS011;997;48.448;8.924;2023-02-11T08:18:54;30.73;;;22.10;;
1991;SDS011;997;48.448;8.924;2023-02-11T08:21:22;34.57;;;28.83;;
1991;SDS011;997;48.448;8.924;2023-02-11T08:23:48;57.90;;;42.10;;
1991;SDS011;997;48.448;8.924;2023-02-11T08:26:16;43.50;;;31.33;;
1991;SDS011;997;48.448;8.924;2023-02-11T08:28:46;32.90;;;29.30;;
1991;SDS011;997;48.448;8.924;2023-02-11T08:31:15;56.37;;;35.93;;
1991;SDS011;997;48.448;8.924;2023-02-11T08:33:42;40.97;;;31.57;;
1991;SDS011;997;48.448;8.924;2023-02-11T08:36:09;35.57;;;26.73;;
1991;SDS011;997;48.448;8.924;2023-02-11T08:38:36;35.50;;;31.13;;
1991;SDS011;997;48.448;8.924;2023-02-11T08:41:01;35.47;;;27.33;;
1991;SDS011;997;48.448;8.924;2023-02-11T08:43:27;36.50;;;29.37;;
1991;SDS011;997;48.448;8.924;2023-02-11T08:45:53;42.60;;;36.37;;
1991;SDS011;997;48.448;8.924;2023-02-11T08:48:19;27.10;;;23.40;;
1991;SDS011;997;48.448;8.924;2023-02-11T08:50:45;35.07;;;26.10;;
1991;SDS011;997;48.448;8.924;2023-02-11T08:53:11;36.17;;;27.53;;
1991;SDS011;997;48.448;8.924;2023-02-11T08:55:36;25.93;;;23.40;;
1991;SDS011;997;48.448;8.924;2023-02-11T08:58:02;27.83;;;23.63;;
1991;SDS011;997;48.448;8.924;2023-02-11T09:00:28;22.53;;;19.93;;
1991;SDS011;997;48.448;8.924;2023-02-11T09:02:54;26.27;;;22.10;;
1991;SDS011;997;48.448;8.924;2023-02-11T09:05:19;22.17;;;19.57;;
1991;SDS011;997;48.448;8.924;2023-02-11T09:07:46;23.53;;;19.10;;
1991;SDS011;997;48.448;8.924;2023-02-11T09:10:12;22.80;;;19.93;;
1991;SDS011;997;48.448;8.924;2023-02-11T09:12:37;24.50;;;20.20;;
1991;SDS011;997;48.448;8.924;2023-02-11T09:15:03;24.23;;;21.67;;
1991;SDS011;997;48.448;8.924;2023-02-11T09:17:29;28.10;;;24.33;;
1991;SDS011;997;48.448;8.924;2023-02-11T09:19:55;31.00;;;25.57;;
1991;SDS011;997;48.448;8.924;2023-02-11T09:22:20;33.47;;;28.20;;
1991;SDS011;997;48.448;8.924;2023-02-11T09:24:46;36.03;;;27.40;;
1991;SDS011;997;48.448;8.924;2023-02-11T09:27:12;28.63;;;25.37;;
1991;SDS011;997;48.448;8.924;2023-02-11T09:29:37;29.17;;;26.00;;
1991;SDS011;997;48.448;8.924;2023-02-11T09:32:03;30.07;;;26.53;;
1991;SDS011;997;48.448;8.924;2023-02-11T09:34:29;27.93;;;23.87;;
1991;SDS011;997;48.448;8.924;2023-02-11T09:36:55;31.47;;;23.57;;
1991;SDS011;997;48.448;8.924;2023-02-11T09:39:20;31.23;;;24.03;;
1991;SDS011;997;48.448;8.924;2023-02-11T09:42:02;26.03;;;23.10;;
1991;SDS011;997;48.448;8.924;2023-02-11T09:44:33;23.20;;;19.77;;
1991;SDS011;997;48.448;8.924;2023-02-11T09:47:04;22.27;;;19.67;;
1991;SDS011;997;48.448;8.924;2023-02-11T09:49:52;21.47;;;18.20;;
1991;SDS011;997;48.448;8.924;2023-02-11T09:54:57;22.00;;;19.63;;
1991;SDS011;997;48.448;8.924;2023-02-11T09:57:31;21.97;;;19.67;;
1991;SDS011;997;48.448;8.924;2023-02-11T09:59:59;24.97;;;22.27;;
1991;SDS011;997;48.448;8.924;2023-02-11T10:02:32;23.70;;;19.17;;
1991;SDS011;997;48.448;8.924;2023-02-11T10:10:43;24.67;;;21.87;;
1991;SDS011;997;48.448;8.924;2023-02-11T10:13:28;19.60;;;15.20;;
1991;SDS011;997;48.448;8.924;2023-02-11T10:16:23;34.77;;;27.73;;
1991;SDS011;997;48.448;8.924;2023-02-11T10:24:15;15.47;;;13.93;;
1991;SDS011;997;48.448;8.924;2023-02-11T10:26:42;20.30;;;17.07;;
1991;SDS011;997;48.448;8.924;2023-02-11T10:29:32;31.30;;;22.13;;
1991;SDS011;997;48.448;8.924;2023-02-11T10:31:59;18.00;;;15.20;;
1991;SDS011;997;48.448;8.924;2023-02-11T10:34:28;29.53;;;25.33;;
1991;SDS011;997;48.448;8.924;2023-02-11T10:36:53;22.13;;;16.87;;
1991;SDS011;997;48.448;8.924;2023-02-11T10:39:20;25.73;;;22.30;;
1991;SDS011;997;48.448;8.924;2023-02-11T10:41:58;20.53;;;18.13;;
1991;SDS011;997;48.448;8.924;2023-02-11T10:44:36;19.40;;;17.10;;
1991;SDS011;997;48.448;8.924;2023-02-11T10:47:13;13.50;;;11.10;;
1991;SDS011;997;48.448;8.924;2023-02-11T10:49:45;11.10;;;10.03;;
1991;SDS011;997;48.448;8.924;2023-02-11T10:52:12;13.90;;;12.50;;
1991;SDS011;997;48.448;8.924;2023-02-11T10:54:41;14.33;;;12.97;;
1991;SDS011;997;48.448;8.924;2023-02-11T10:57:19;13.70;;;12.30;;
1991;SDS011;997;48.448;8.924;2023-02-11T10:59:45;12.50;;;11.20;;
1991;SDS011;997;48.448;8.924;2023-02-11T11:02:32;12.57;;;11.27;;
1991;SDS011;997;48.448;8.924;2023-02-11T11:05:13;11.90;;;10.70;;
1991;SDS011;997;48.448;8.924;2023-02-11T11:07:50;11.17;;;10.00;;
1991;SDS011;997;48.448;8.924;2023-02-11T11:10:35;11.53;;;10.40;;
1991;SDS011;997;48.448;8.924;2023-02-11T11:18:36;17.30;;;15.77;;
1991;SDS011;997;48.448;8.924;2023-02-11T11:21:10;11.83;;;10.80;;
1991;SDS011;997;48.448;8.924;2023-02-11T11:23:37;9.73;;;7.87;;
1991;SDS011;997;48.448;8.924;2023-02-11T11:26:11;12.13;;;10.83;;
1991;SDS011;997;48.448;8.924;2023-02-11T11:31:14;12.50;;;11.40;;
1991;SDS011;997;48.448;8.924;2023-02-11T11:33:52;12.00;;;10.20;;
1991;SDS011;997;48.448;8.924;2023-02-11T11:36:37;11.63;;;9.33;;
1991;SDS011;997;48.448;8.924;2023-02-11T11:39:37;13.90;;;11.40;;
1991;SDS011;997;48.448;8.924;2023-02-11T11:41:59;16.03;;;13.63;;
1991;SDS011;997;48.448;8.924;2023-02-11T11:44:33;13.27;;;11.07;;
1991;SDS011;997;48.448;8.924;2023-02-11T11:49:36;8.50;;;7.70;;
1991;SDS011;997;48.448;8.924;2023-02-11T11:55:05;8.73;;;7.93;;
1991;SDS011;997;48.448;8.924;2023-02-11T11:57:37;14.40;;;12.93;;
1991;SDS011;997;48.448;8.924;2023-02-11T12:00:03;6.60;;;5.90;;
1991;SDS011;997;48.448;8.924;2023-02-11T12:05:08;10.00;;;9.00;;
1991;SDS011;997;48.448;8.924;2023-02-11T12:26:18;5.27;;;4.70;;
1991;SDS011;997;48.448;8.924;2023-02-11T12:31:55;5.93;;;4.93;;
1991;SDS011;997;48.448;8.924;2023-02-11T12:43:38;5.07;;;4.10;;
1991;SDS011;997;48.448;8.924;2023-02-11T12:57:10;5.00;;;4.17;;
1991;SDS011;997;48.448;8.924;2023-02-11T13:05:38;5.70;;;5.20;;
1991;SDS011;997;48.448;8.924;2023-02-11T13:08:18;7.27;;;4.97;;
1991;SDS011;997;48.448;8.924;2023-02-11T13:11:07;6.53;;;5.77;;
1991;SDS011;997;48.448;8.924;2023-02-11T13:13:45;6.60;;;6.00;;
1991;SDS011;997;48.448;8.924;2023-02-11T13:19:02;6.63;;;5.83;;
1991;SDS011;997;48.448;8.924;2023-02-11T13:26:56;5.30;;;4.80;;
1991;SDS011;997;48.448;8.924;2023-02-11T13:29:30;6.27;;;5.10;;
1991;SDS011;997;48.448;8.924;2023-02-11T13:32:13;9.03;;;7.27;;
1991;SDS011;997;48.448;8.924;2023-02-11T13:37:05;9.83;;;6.70;;
1991;SDS011;997;48.448;8.924;2023-02-11T13:48:06;5.87;;;5.27;;
1991;SDS011;997;48.448;8.924;2023-02-11T13:50:57;7.53;;;6.83;;
1991;SDS011;997;48.448;8.924;2023-02-11T13:53:26;6.60;;;6.00;;
1991;SDS011;997;48.448;8.924;2023-02-11T13:56:10;7.90;;;7.10;;
1991;SDS011;997;48.448;8.924;2023-02-11T13:58:47;8.20;;;7.50;;
1991;SDS011;997;48.448;8.924;2023-02-11T14:04:30;7.80;;;7.10;;
1991;SDS011;997;48.448;8.924;2023-02-11T14:07:28;11.57;;;7.57;;
1991;SDS011;997;48.448;8.924;2023-02-11T14:13:22;8.33;;;6.90;;
1991;SDS011;997;48.448;8.924;2023-02-11T14:16:02;8.80;;;8.00;;
1991;SDS011;997;48.448;8.924;2023-02-11T14:21:12;7.63;;;6.87;;
1991;SDS011;997;48.448;8.924;2023-02-11T14:31:59;12.20;;;7.13;;
1991;SDS011;997;48.448;8.924;2023-02-11T14:37:41;8.43;;;7.63;;
1991;SDS011;997;48.448;8.924;2023-02-11T14:40:18;9.47;;;7.83;;
1991;SDS011;997;48.448;8.924;2023-02-11T14:42:51;7.17;;;6.47;;
1991;SDS011;997;48.448;8.924;2023-02-11T14:45:20;9.13;;;6.20;;
1991;SDS011;997;48.448;8.924;2023-02-11T14:50:23;8.60;;;7.80;;
1991;SDS011;997;48.448;8.924;2023-02-11T14:52:52;8.00;;;7.23;;
1991;SDS011;997;48.448;8.924;2023-02-11T14:55:30;15.80;;;8.80;;
1991;SDS011;997;48.448;8.924;2023-02-11T14:58:04;8.20;;;7.40;;
1991;SDS011;997;48.448;8.924;2023-02-11T15:00:29;9.00;;;8.20;;
1991;SDS011;997;48.448;8.924;2023-02-11T15:02:55;8.70;;;7.83;;
1991;SDS011;997;48.448;8.924;2023-02-11T15:05:25;8.20;;;7.43;;
1991;SDS011;997;48.448;8.924;2023-02-11T15:08:03;11.60;;;9.03;;
1991;SDS011;997;48.448;8.924;2023-02-11T15:11:03;10.70;;;9.70;;
1991;SDS011;997;48.448;8.924;2023-02-11T15:13:22;9.50;;;8.53;;
1991;SDS011;997;48.448;8.924;2023-02-11T15:15:57;9.07;;;8.10;;
1991;SDS011;997;48.448;8.924;2023-02-11T15:18:29;11.67;;;8.90;;
1991;SDS011;997;48.448;8.924;2023-02-11T15:20:59;8.03;;;7.40;;
1991;SDS011;997;48.448;8.924;2023-02-11T15:23:26;7.00;;;6.40;;
1991;SDS011;997;48.448;8.924;2023-02-11T15:25:53;9.33;;;8.00;;
1991;SDS011;997;48.448;8.924;2023-02-11T15:28:26;8.87;;;8.10;;
1991;SDS011;997;48.448;8.924;2023-02-11T15:33:41;9.97;;;9.03;;
1991;SDS011;997;48.448;8.924;2023-02-11T15:36:08;11.80;;;9.40;;
1991;SDS011;997;48.448;8.924;2023-02-11T15:38:38;9.90;;;8.90;;
1991;SDS011;997;48.448;8.924;2023-02-11T15:41:05;13.17;;;10.60;;
1991;SDS011;997;48.448;8.924;2023-02-11T15:46:18;11.00;;;10.00;;
1991;SDS011;997;48.448;8.924;2023-02-11T15:48:52;12.07;;;10.80;;
1991;SDS011;997;48.448;8.924;2023-02-11T15:54:06;12.43;;;10.70;;
1991;SDS011;997;48.448;8.924;2023-02-11T15:56:41;10.47;;;9.47;;
1991;SDS011;997;48.448;8.924;2023-02-11T15:59:10;10.80;;;9.70;;
1991;SDS011;997;48.448;8.924;2023-02-11T16:01:42;10.13;;;9.27;;
1991;SDS011;997;48.448;8.924;2023-02-11T16:04:19;15.60;;;11.07;;
1991;SDS011;997;48.448;8.924;2023-02-11T16:06:47;9.80;;;8.97;;
1991;SDS011;997;48.448;8.924;2023-02-11T16:14:29;11.87;;;10.77;;
1991;SDS011;997;48.448;8.924;2023-02-11T16:19:29;11.70;;;9.80;;
1991;SDS011;997;48.448;8.924;2023-02-11T16:22:12;12.23;;;11.00;;
1991;SDS011;997;48.448;8.924;2023-02-11T16:24:45;14.33;;;11.40;;
1991;SDS011;997;48.448;8.924;2023-02-11T16:27:23;13.17;;;11.80;;
1991;SDS011;997;48.448;8.924;2023-02-11T16:30:03;11.80;;;10.60;;
1991;SDS011;997;48.448;8.924;2023-02-11T16:32:31;10.43;;;9.33;;
1991;SDS011;997;48.448;8.924;2023-02-11T16:34:58;12.10;;;10.73;;
1991;SDS011;997;48.448;8.924;2023-02-11T16:37:25;14.20;;;12.80;;
1991;SDS011;997;48.448;8.924;2023-02-11T16:39:54;12.53;;;11.53;;
1991;SDS011;997;48.448;8.924;2023-02-11T16:42:20;13.23;;;12.00;;
1991;SDS011;997;48.448;8.924;2023-02-11T16:44:46;12.40;;;11.20;;
1991;SDS011;997;48.448;8.924;2023-02-11T16:47:19;10.27;;;9.37;;
1991;SDS011;997;48.448;8.924;2023-02-11T17:05:21;15.27;;;13.50;;
1991;SDS011;997;48.448;8.924;2023-02-11T17:07:49;13.70;;;12.40;;
1991;SDS011;997;48.448;8.924;2023-02-11T17:10:15;16.70;;;12.20;;
1991;SDS011;997;48.448;8.924;2023-02-11T17:12:46;14.17;;;12.67;;
1991;SDS011;997;48.448;8.924;2023-02-11T17:15:12;13.30;;;12.03;;
1991;SDS011;997;48.448;8.924;2023-02-11T17:17:38;15.90;;;13.73;;
1991;SDS011;997;48.448;8.924;2023-02-11T17:20:04;12.07;;;10.83;;
1991;SDS011;997;48.448;8.924;2023-02-11T17:22:31;15.13;;;13.20;;
1991;SDS011;997;48.448;8.924;2023-02-11T17:24:56;12.90;;;11.10;;
1991;SDS011;997;48.448;8.924;2023-02-11T17:27:23;14.73;;;12.50;;
1991;SDS011;997;48.448;8.924;2023-02-11T17:29:49;14.53;;;12.73;;
1991;SDS011;997;48.448;8.924;2023-02-11T17:32:14;15.03;;;13.30;;
1991;SDS011;997;48.448;8.924;2023-02-11T17:34:40;12.60;;;11.40;;
1991;SDS011;997;48.448;8.924;2023-02-11T17:37:06;12.83;;;11.13;;
1991;SDS011;997;48.448;8.924;2023-02-11T17:39:37;15.10;;;13.80;;
1991;SDS011;997;48.448;8.924;2023-02-11T17:42:03;13.73;;;12.40;;
1991;SDS011;997;48.448;8.924;2023-02-11T17:44:30;16.33;;;14.53;;
1991;SDS011;997;48.448;8.924;2023-02-11T17:46:56;15.00;;;13.47;;
1991;SDS011;997;48.448;8.924;2023-02-11T17:49:21;14.50;;;13.20;;
1991;SDS011;997;48.448;8.924;2023-02-11T17:51:47;18.07;;;14.67;;
1991;SDS011;997;48.448;8.924;2023-02-11T17:54:14;22.27;;;18.33;;
1991;SDS011;997;48.448;8.924;2023-02-11T17:56:42;20.80;;;17.00;;
1991;SDS011;997;48.448;8.924;2023-02-11T17:59:08;17.80;;;15.63;;
1991;SDS011;997;48.448;8.924;2023-02-11T18:01:35;15.87;;;13.47;;
1991;SDS011;997;48.448;8.924;2023-02-11T18:04:02;15.40;;;13.90;;
1991;SDS011;997;48.448;8.924;2023-02-11T18:06:29;24.07;;;19.87;;
1991;SDS011;997;48.448;8.924;2023-02-11T18:08:55;18.97;;;14.63;;
1991;SDS011;997;48.448;8.924;2023-02-11T18:11:23;18.03;;;16.17;;
1991;SDS011;997;48.448;8.924;2023-02-11T18:13:50;26.60;;;17.27;;
1991;SDS011;997;48.448;8.924;2023-02-11T18:16:19;58.63;;;37.67;;
1991;SDS011;997;48.448;8.924;2023-02-11T18:18:45;26.10;;;19.23;;
1991;SDS011;997;48.448;8.924;2023-02-11T18:21:12;16.53;;;14.70;;
1991;SDS011;997;48.448;8.924;2023-02-11T18:23:43;16.17;;;14.50;;
1991;SDS011;997;48.448;8.924;2023-02-11T18:26:10;18.73;;;16.77;;
1991;SDS011;997;48.448;8.924;2023-02-11T18:28:37;25.20;;;18.90;;
1991;SDS011;997;48.448;8.924;2023-02-11T18:31:04;17.17;;;14.97;;
1991;SDS011;997;48.448;8.924;2023-02-11T18:33:34;19.83;;;17.80;;
1991;SDS011;997;48.448;8.924;2023-02-11T18:36:04;21.40;;;17.70;;
1991;SDS011;997;48.448;8.924;2023-02-11T18:38:31;19.80;;;17.80;;
1991;SDS011;997;48.448;8.924;2023-02-11T18:40:57;21.93;;;19.67;;
1991;SDS011;997;48.448;8.924;2023-02-11T18:43:23;20.30;;;18.10;;
1991;SDS011;997;48.448;8.924;2023-02-11T18:45:48;19.70;;;17.90;;
1991;SDS011;997;48.448;8.924;2023-02-11T18:48:15;19.23;;;16.10;;
1991;SDS011;997;48.448;8.924;2023-02-11T18:50:42;19.50;;;16.50;;
1991;SDS011;997;48.448;8.924;2023-02-11T18:53:09;18.87;;;15.93;;
1991;SDS011;997;48.448;8.924;2023-02-11T18:55:37;16.90;;;15.07;;
1991;SDS011;997;48.448;8.924;2023-02-11T18:58:07;17.03;;;15.03;;
1991;SDS011;997;48.448;8.924;2023-02-11T19:00:33;19.00;;;15.20;;
1991;SDS011;997;48.448;8.924;2023-02-11T19:03:00;18.27;;;15.30;;
1991;SDS011;997;48.448;8.924;2023-02-11T19:05:26;20.40;;;15.63;;
1991;SDS011;997;48.448;8.924;2023-02-11T19:07:55;20.60;;;16.37;;
1991;SDS011;997;48.448;8.924;2023-02-11T19:10:21;20.27;;;17.60;;
1991;SDS011;997;48.448;8.924;2023-02-11T19:12:47;19.47;;;15.70;;
1991;SDS011;997;48.448;8.924;2023-02-11T19:15:14;17.33;;;15.43;;
1991;SDS011;997;48.448;8.924;2023-02-11T19:17:40;18.93;;;16.90;;
1991;SDS011;997;48.448;8.924;2023-02-11T19:20:06;18.60;;;16.60;;
1991;SDS011;997;48.448;8.924;2023-02-11T19:22:32;20.53;;;18.47;;
1991;SDS011;997;48.448;8.924;2023-02-11T19:24:57;26.53;;;24.13;;
1991;SDS011;997;48.448;8.924;2023-02-11T19:27:23;34.07;;;27.97;;
1991;SDS011;997;48.448;8.924;2023-02-11T19:29:49;31.60;;;26.07;;
1991;SDS011;997;48.448;8.924;2023-02-11T19:32:15;32.80;;;24.37;;
1991;SDS011;997;48.448;8.924;2023-02-11T19:34:40;27.77;;;24.90;;
1991;SDS011;997;48.448;8.924;2023-02-11T19:37:07;25.00;;;21.50;;
1991;SDS011;997;48.448;8.924;2023-02-11T19:39:34;31.97;;;24.33;;
1991;SDS011;997;48.448;8.924;2023-02-11T19:42:00;21.90;;;18.77;;
1991;SDS011;997;48.448;8.924;2023-02-11T19:44:26;42.70;;;31.30;;
1991;SDS011;997;48.448;8.924;2023-02-11T19:46:52;30.00;;;26.80;;
1991;SDS011;997;48.448;8.924;2023-02-11T19:49:18;23.63;;;21.03;;
1991;SDS011;997;48.448;8.924;2023-02-11T19:51:52;22.23;;;19.93;;
1991;SDS011;997;48.448;8.924;2023-02-11T19:54:19;28.97;;;21.27;;
1991;SDS011;997;48.448;8.924;2023-02-11T19:56:46;22.20;;;18.30;;
1991;SDS011;997;48.448;8.924;2023-02-11T19:59:12;17.53;;;15.67;;
1991;SDS011;997;48.448;8.924;2023-02-11T20:01:39;18.23;;;15.73;;
1991;SDS011;997;48.448;8.924;2023-02-11T20:04:05;27.73;;;23.90;;
1991;SDS011;997;48.448;8.924;2023-02-11T20:06:33;24.67;;;20.90;;
1991;SDS011;997;48.448;8.924;2023-02-11T20:09:06;26.20;;;23.50;;
1991;SDS011;997;48.448;8.924;2023-02-11T20:11:35;20.27;;;16.80;;
1991;SDS011;997;48.448;8.924;2023-02-11T20:14:02;32.20;;;25.67;;
1991;SDS011;997;48.448;8.924;2023-02-11T20:16:28;29.43;;;23.80;;
1991;SDS011;997;48.448;8.924;2023-02-11T20:18:55;33.97;;;27.47;;
1991;SDS011;997;48.448;8.924;2023-02-11T20:21:26;28.83;;;21.10;;
1991;SDS011;997;48.448;8.924;2023-02-11T20:23:53;20.73;;;18.63;;
1991;SDS011;997;48.448;8.924;2023-02-11T20:26:23;22.33;;;20.10;;
1991;SDS011;997;48.448;8.924;2023-02-11T20:28:51;27.53;;;20.53;;
1991;SDS011;997;48.448;8.924;2023-02-11T20:31:19;28.10;;;21.83;;
1991;SDS011;997;48.448;8.924;2023-02-11T20:33:46;20.50;;;16.87;;
1991;SDS011;997;48.448;8.924;2023-02-11T20:36:16;22.37;;;17.70;;
1991;SDS011;997;48.448;8.924;2023-02-11T20:38:44;22.40;;;19.80;;
1991;SDS011;997;48.448;8.924;2023-02-11T20:41:12;21.53;;;19.33;;
1991;SDS011;997;48.448;8.924;2023-02-11T20:43:40;19.03;;;17.00;;
1991;SDS011;997;48.448;8.924;2023-02-11T20:46:10;20.00;;;17.80;;
1991;SDS011;997;48.448;8.924;2023-02-11T20:48:37;21.63;;;19.53;;
1991;SDS011;997;48.448;8.924;2023-02-11T20:51:06;19.63;;;16.60;;
1991;SDS011;997;48.448;8.924;2023-02-11T20:53:37;19.37;;;17.37;;
1991;SDS011;997;48.448;8.924;2023-02-11T20:56:05;18.60;;;16.70;;
1991;SDS011;997;48.448;8.924;2023-02-11T20:58:33;20.40;;;16.77;;
1991;SDS011;997;48.448;8.924;2023-02-11T21:01:13;17.70;;;15.37;;
1991;SDS011;997;48.448;8.924;2023-02-11T21:03:50;18.30;;;16.40;;
1991;SDS011;997;48.448;8.924;2023-02-11T21:06:18;20.63;;;16.60;;
1991;SDS011;997;48.448;8.924;2023-02-11T21:08:44;20.03;;;17.93;;
1991;SDS011;997;48.448;8.924;2023-02-11T21:11:10;17.40;;;15.70;;
1991;SDS011;997;48.448;8.924;2023-02-11T21:13:36;20.00;;;17.93;;
1991;SDS011;997;48.448;8.924;2023-02-11T21:16:03;22.90;;;20.70;;
1991;SDS011;997;48.448;8.924;2023-02-11T21:18:29;19.10;;;17.10;;
1991;SDS011;997;48.448;8.924;2023-02-11T21:20:54;20.67;;;18.20;;
1991;SDS011;997;48.448;8.924;2023-02-11T21:23:20;19.73;;;17.13;;
1991;SDS011;997;48.448;8.924;2023-02-11T21:25:47;20.60;;;18.40;;
1991;SDS011;997;48.448;8.924;2023-02-11T21:28:12;24.90;;;19.80;;
1991;SDS011;997;48.448;8.924;2023-02-11T21:30:38;44.47;;;32.30;;
1991;SDS011;997;48.448;8.924;2023-02-11T21:33:07;60.63;;;36.20;;
1991;SDS011;997;48.448;8.924;2023-02-11T21:35:33;52.83;;;37.67;;
1991;SDS011;997;48.448;8.924;2023-02-11T21:38:00;40.43;;;30.37;;
1991;SDS011;997;48.448;8.924;2023-02-11T21:40:27;26.37;;;21.57;;
1991;SDS011;997;48.448;8.924;2023-02-11T21:42:56;25.20;;;19.57;;
1991;SDS011;997;48.448;8.924;2023-02-11T21:45:22;20.57;;;18.47;;
1991;SDS011;997;48.448;8.924;2023-02-11T21:47:49;19.40;;;17.50;;